Time,TemperatureF,DewpointF,PressureIn,WindDirection,WindDirectionDegrees,WindSpeedMPH,WindSpeedGustMPH,Humidity,HourlyPrecipIn,Conditions,Clouds,dailyrainin,SolarRadiationWatts/m^2,SoftwareType,DateUTC
2014-02-21 00:02:00,68.0,62.0,-100.00,SSW,195,7.0,13.0,82,0.00,,,0.07,0.000000,,2014-02-21 06:02:00,
2014-02-21 00:12:00,68.0,62.0,-100.00,SSW,195,7.0,13.0,82,0.00,,,0.07,0.000000,,2014-02-21 06:12:00,
2014-02-21 00:22:00,68.0,62.0,-100.00,SSW,195,7.0,13.0,82,0.00,,,0.07,0.000000,,2014-02-21 06:22:00,
2014-02-21 00:52:00,67.0,63.0,-100.00,SSW,201,5.0,18.0,88,0.05,,,0.12,0.000000,,2014-02-21 06:52:00,
2014-02-21 01:02:00,67.0,63.0,-100.00,SSW,201,5.0,18.0,88,0.05,,,0.12,0.000000,,2014-02-21 07:02:00,
2014-02-21 01:11:00,67.0,63.0,-100.00,SSW,201,5.0,18.0,88,0.05,,,0.12,0.000000,,2014-02-21 07:11:00,
2014-02-21 01:22:00,67.0,63.0,-100.00,SSW,201,5.0,18.0,88,0.05,,,0.12,0.000000,,2014-02-21 07:22:00,
2014-02-21 01:53:00,66.0,65.0,-100.00,SSW,213,3.0,9.0,97,0.12,,,0.24,0.000000,,2014-02-21 07:53:00,
2014-02-21 02:01:00,66.0,65.0,-100.00,SSW,213,3.0,9.0,97,0.12,,,0.24,0.000000,,2014-02-21 08:01:00,
2014-02-21 02:11:00,66.0,65.0,-100.00,SSW,213,3.0,9.0,97,0.12,,,0.24,0.000000,,2014-02-21 08:11:00,
2014-02-21 02:22:00,66.0,65.0,-100.00,SSW,213,3.0,9.0,97,0.12,,,0.24,0.000000,,2014-02-21 08:22:00,
2014-02-21 02:52:00,63.0,63.0,-100.00,WSW,240,10.0,24.0,99,0.37,,,0.61,0.000000,,2014-02-21 08:52:00,
2014-02-21 03:02:00,63.0,63.0,-100.00,WSW,240,10.0,24.0,99,0.37,,,0.61,0.000000,,2014-02-21 09:02:00,
2014-02-21 03:12:00,63.0,63.0,-100.00,WSW,240,10.0,24.0,99,0.37,,,0.61,0.000000,,2014-02-21 09:12:00,
2014-02-21 03:22:00,63.0,63.0,-100.00,WSW,240,10.0,24.0,99,0.37,,,0.61,0.000000,,2014-02-21 09:22:00,
2014-02-21 03:54:00,53.0,50.0,-100.00,NNW,327,8.0,24.0,89,0.20,,,0.81,0.000000,,2014-02-21 09:54:00,
2014-02-21 04:03:00,53.0,50.0,-100.00,NNW,327,8.0,24.0,89,0.20,,,0.81,0.000000,,2014-02-21 10:03:00,
2014-02-21 04:13:00,53.0,50.0,-100.00,NNW,327,8.0,24.0,89,0.20,,,0.81,0.000000,,2014-02-21 10:13:00,
2014-02-21 04:23:00,53.0,50.0,-100.00,NNW,327,8.0,24.0,89,0.20,,,0.81,0.000000,,2014-02-21 10:23:00,
2014-02-21 04:53:00,47.0,45.0,-100.00,NE,47,3.0,15.0,91,0.04,,,0.85,0.000000,,2014-02-21 10:53:00,
2014-02-21 05:02:00,47.0,45.0,-100.00,NE,47,3.0,15.0,91,0.04,,,0.85,0.000000,,2014-02-21 11:02:00,
2014-02-21 05:12:00,47.0,45.0,-100.00,NE,47,3.0,15.0,91,0.04,,,0.85,0.000000,,2014-02-21 11:12:00,
2014-02-21 05:22:00,47.0,45.0,-100.00,NE,47,3.0,15.0,91,0.04,,,0.85,0.000000,,2014-02-21 11:22:00,
2014-02-21 05:52:00,46.0,43.0,-100.00,North,356,3.0,8.0,88,0.00,,,0.85,0.000000,,2014-02-21 11:52:00,
2014-02-21 06:02:00,46.0,43.0,-100.00,North,356,3.0,8.0,88,0.00,,,0.85,0.000000,,2014-02-21 12:02:00,
2014-02-21 06:12:00,46.0,43.0,-100.00,North,356,3.0,8.0,88,0.00,,,0.85,0.000000,,2014-02-21 12:12:00,
2014-02-21 06:22:00,46.0,43.0,-100.00,North,356,3.0,8.0,88,0.00,,,0.85,0.000000,,2014-02-21 12:22:00,
2014-02-21 06:52:00,45.0,39.0,-100.00,NNE,28,2.0,6.0,78,0.00,,,0.85,0.000000,,2014-02-21 12:52:00,
2014-02-21 07:01:00,45.0,39.0,-100.00,NNE,28,2.0,6.0,78,0.00,,,0.85,0.000000,,2014-02-21 13:01:00,
2014-02-21 07:11:00,45.0,39.0,-100.00,NNE,28,2.0,6.0,78,0.00,,,0.85,0.000000,,2014-02-21 13:11:00,
2014-02-21 07:22:00,45.0,39.0,-100.00,NNE,28,2.0,6.0,78,0.00,,,0.85,0.000000,,2014-02-21 13:22:00,
2014-02-21 07:52:00,41.0,39.0,-100.00,East,86,1.0,4.0,92,0.00,,,0.85,14.000000,,2014-02-21 13:52:00,
2014-02-21 08:02:00,41.0,39.0,-100.00,East,86,1.0,4.0,92,0.00,,,0.85,14.000000,,2014-02-21 14:02:00,
2014-02-21 08:11:00,41.0,39.0,-100.00,East,86,1.0,4.0,92,0.00,,,0.85,14.000000,,2014-02-21 14:11:00,
2014-02-21 08:22:00,41.0,39.0,-100.00,East,86,1.0,4.0,92,0.00,,,0.85,14.000000,,2014-02-21 14:22:00,
2014-02-21 08:53:00,51.0,40.0,-100.00,NNE,30,4.0,7.0,65,0.00,,,0.85,187.000000,,2014-02-21 14:53:00,
2014-02-21 09:02:00,51.0,40.0,-100.00,NNE,30,4.0,7.0,65,0.00,,,0.85,187.000000,,2014-02-21 15:02:00,
2014-02-21 09:11:00,51.0,40.0,-100.00,NNE,30,4.0,7.0,65,0.00,,,0.85,187.000000,,2014-02-21 15:11:00,
2014-02-21 09:22:00,51.0,40.0,-100.00,NNE,30,4.0,7.0,65,0.00,,,0.85,187.000000,,2014-02-21 15:22:00,
2014-02-21 09:53:00,53.0,33.0,-100.00,North,1,5.0,13.0,47,0.00,,,0.85,411.000000,,2014-02-21 15:53:00,
2014-02-21 10:03:00,53.0,33.0,-100.00,North,1,5.0,13.0,47,0.00,,,0.85,411.000000,,2014-02-21 16:03:00,
2014-02-21 10:13:00,53.0,33.0,-100.00,North,1,5.0,13.0,47,0.00,,,0.85,411.000000,,2014-02-21 16:13:00,
2014-02-21 10:23:00,53.0,33.0,-100.00,North,1,5.0,13.0,47,0.00,,,0.85,411.000000,,2014-02-21 16:23:00,
2014-02-21 10:53:00,55.0,32.0,-100.00,NW,316,5.0,12.0,42,0.00,,,0.85,552.000000,,2014-02-21 16:53:00,
2014-02-21 11:02:00,55.0,32.0,-100.00,NW,316,5.0,12.0,42,0.00,,,0.85,552.000000,,2014-02-21 17:02:00,
2014-02-21 11:12:00,55.0,32.0,-100.00,NW,316,5.0,12.0,42,0.00,,,0.85,552.000000,,2014-02-21 17:12:00,
2014-02-21 11:22:00,55.0,32.0,-100.00,NW,316,5.0,12.0,42,0.00,,,0.85,552.000000,,2014-02-21 17:22:00,
2014-02-21 11:52:00,57.0,27.0,-100.00,NW,311,5.0,12.0,32,0.00,,,0.85,657.000000,,2014-02-21 17:52:00,
2014-02-21 12:02:00,57.0,27.0,-100.00,NW,311,5.0,12.0,32,0.00,,,0.85,657.000000,,2014-02-21 18:02:00,
2014-02-21 12:12:00,57.0,27.0,-100.00,NW,311,5.0,12.0,32,0.00,,,0.85,657.000000,,2014-02-21 18:12:00,
2014-02-21 12:22:00,57.0,27.0,-100.00,NW,311,5.0,12.0,32,0.00,,,0.85,657.000000,,2014-02-21 18:22:00,
2014-02-21 12:52:00,60.0,28.0,-100.00,NNW,333,5.0,12.0,29,0.00,,,0.85,597.000000,,2014-02-21 18:52:00,
2014-02-21 13:01:00,60.0,28.0,-100.00,NNW,333,5.0,12.0,29,0.00,,,0.85,597.000000,,2014-02-21 19:01:00,
2014-02-21 13:11:00,60.0,28.0,-100.00,NNW,333,5.0,12.0,29,0.00,,,0.85,597.000000,,2014-02-21 19:11:00,
2014-02-21 13:22:00,60.0,28.0,-100.00,NNW,333,5.0,12.0,29,0.00,,,0.85,597.000000,,2014-02-21 19:22:00,
2014-02-21 13:52:00,60.0,21.0,-100.00,NW,309,6.0,11.0,22,0.00,,,0.85,708.000000,,2014-02-21 19:52:00,
2014-02-21 14:02:00,60.0,21.0,-100.00,NW,309,6.0,11.0,22,0.00,,,0.85,708.000000,,2014-02-21 20:02:00,
2014-02-21 14:12:00,60.0,21.0,-100.00,NW,309,6.0,11.0,22,0.00,,,0.85,708.000000,,2014-02-21 20:12:00,
2014-02-21 14:22:00,60.0,21.0,-100.00,NW,309,6.0,11.0,22,0.00,,,0.85,708.000000,,2014-02-21 20:22:00,
2014-02-21 14:52:00,62.0,20.0,-100.00,North,0,3.0,11.0,20,0.00,,,0.85,485.000000,,2014-02-21 20:52:00,
2014-02-21 15:02:00,62.0,20.0,-100.00,North,0,3.0,11.0,20,0.00,,,0.85,485.000000,,2014-02-21 21:02:00,
2014-02-21 15:11:00,62.0,20.0,-100.00,North,0,3.0,11.0,20,0.00,,,0.85,485.000000,,2014-02-21 21:11:00,
2014-02-21 15:22:00,62.0,20.0,-100.00,North,0,3.0,11.0,20,0.00,,,0.85,485.000000,,2014-02-21 21:22:00,
2014-02-21 15:54:00,61.0,17.0,-100.00,WNW,301,5.0,9.0,18,0.00,,,0.85,480.000000,,2014-02-21 21:54:00,
2014-02-21 16:03:00,61.0,17.0,-100.00,WNW,301,5.0,9.0,18,0.00,,,0.85,480.000000,,2014-02-21 22:03:00,
2014-02-21 16:12:00,61.0,17.0,-100.00,WNW,301,5.0,9.0,18,0.00,,,0.85,480.000000,,2014-02-21 22:12:00,
2014-02-21 16:23:00,61.0,17.0,-100.00,WNW,301,5.0,9.0,18,0.00,,,0.85,480.000000,,2014-02-21 22:23:00,
2014-02-21 16:53:00,60.0,18.0,-100.00,WNW,300,4.0,7.0,19,0.00,,,0.85,299.000000,,2014-02-21 22:53:00,
2014-02-21 17:02:00,60.0,18.0,-100.00,WNW,300,4.0,7.0,19,0.00,,,0.85,299.000000,,2014-02-21 23:02:00,
2014-02-21 17:12:00,60.0,18.0,-100.00,WNW,300,4.0,7.0,19,0.00,,,0.85,299.000000,,2014-02-21 23:12:00,
2014-02-21 17:22:00,60.0,18.0,-100.00,WNW,300,4.0,7.0,19,0.00,,,0.85,299.000000,,2014-02-21 23:22:00,
2014-02-21 17:53:00,53.0,25.0,-100.00,NE,51,2.0,6.0,33,0.00,,,0.85,77.000000,,2014-02-21 23:53:00,
2014-02-21 18:02:00,53.0,25.0,-100.00,NE,51,2.0,6.0,33,0.00,,,0.85,77.000000,,2014-02-22 00:02:00,
2014-02-21 18:12:00,53.0,25.0,-100.00,NE,51,2.0,6.0,33,0.00,,,0.85,77.000000,,2014-02-22 00:12:00,
2014-02-21 18:22:00,53.0,25.0,-100.00,NE,51,2.0,6.0,33,0.00,,,0.85,77.000000,,2014-02-22 00:22:00,
2014-02-21 18:52:00,45.0,28.0,-100.00,NNE,24,1.0,2.0,51,0.00,,,0.80,1.000000,,2014-02-22 00:52:00,
2014-02-21 19:02:00,45.0,28.0,-100.00,NNE,24,1.0,2.0,51,0.00,,,0.80,1.000000,,2014-02-22 01:02:00,
2014-02-21 19:12:00,45.0,28.0,-100.00,NNE,24,1.0,2.0,51,0.00,,,0.80,1.000000,,2014-02-22 01:12:00,
2014-02-21 19:22:00,45.0,28.0,-100.00,NNE,24,1.0,2.0,51,0.00,,,0.80,1.000000,,2014-02-22 01:22:00,
2014-02-21 19:53:00,42.0,30.0,-100.00,ENE,65,2.0,4.0,62,0.00,,,0.78,0.000000,,2014-02-22 01:53:00,
2014-02-21 20:02:00,42.0,30.0,-100.00,ENE,65,2.0,4.0,62,0.00,,,0.78,0.000000,,2014-02-22 02:02:00,
2014-02-21 20:12:00,42.0,30.0,-100.00,ENE,65,2.0,4.0,62,0.00,,,0.78,0.000000,,2014-02-22 02:12:00,
2014-02-21 20:22:00,42.0,30.0,-100.00,ENE,65,2.0,4.0,62,0.00,,,0.78,0.000000,,2014-02-22 02:22:00,
2014-02-21 20:52:00,39.0,30.0,-100.00,ESE,114,2.0,3.0,71,0.00,,,0.78,0.000000,,2014-02-22 02:52:00,
2014-02-21 21:02:00,39.0,30.0,-100.00,ESE,114,2.0,3.0,71,0.00,,,0.78,0.000000,,2014-02-22 03:02:00,
2014-02-21 21:12:00,39.0,30.0,-100.00,ESE,114,2.0,3.0,71,0.00,,,0.78,0.000000,,2014-02-22 03:12:00,
2014-02-21 21:22:00,39.0,30.0,-100.00,ESE,114,2.0,3.0,71,0.00,,,0.78,0.000000,,2014-02-22 03:22:00,
2014-02-21 21:53:00,37.0,30.0,-100.00,SE,129,1.0,3.0,77,0.00,,,0.78,0.000000,,2014-02-22 03:53:00,
2014-02-21 22:03:00,37.0,30.0,-100.00,SE,129,1.0,3.0,77,0.00,,,0.78,0.000000,,2014-02-22 04:03:00,
2014-02-21 22:13:00,37.0,30.0,-100.00,SE,129,1.0,3.0,77,0.00,,,0.78,0.000000,,2014-02-22 04:13:00,
2014-02-21 22:23:00,37.0,30.0,-100.00,SE,129,1.0,3.0,77,0.00,,,0.78,0.000000,,2014-02-22 04:23:00,
2014-02-21 22:52:00,36.0,32.0,-100.00,ESE,105,2.0,4.0,86,0.00,,,0.78,0.000000,,2014-02-22 04:52:00,
2014-02-21 23:02:00,36.0,32.0,-100.00,ESE,105,2.0,4.0,86,0.00,,,0.78,0.000000,,2014-02-22 05:02:00,
2014-02-21 23:12:00,36.0,32.0,-100.00,ESE,105,2.0,4.0,86,0.00,,,0.78,0.000000,,2014-02-22 05:12:00,
2014-02-21 23:22:00,36.0,32.0,-100.00,ESE,105,2.0,4.0,86,0.00,,,0.78,0.000000,,2014-02-22 05:22:00,
2014-02-21 23:52:00,36.0,33.0,-100.00,ESE,117,2.0,3.0,88,0.00,,,0.78,0.000000,,2014-02-22 05:52:00,